sensor_id;sensor_type;location;lat;lon;timestamp;P1;durP1;ratioP1;P2;durP2;ratioP2
34491;SDS011;20737;49.908;8.126;2023-02-01T00:00:30;4.05;;;3.30;;
34491;SDS011;20737;49.908;8.126;2023-02-01T00:02:59;4.40;;;3.58;;
34491;SDS011;20737;49.908;8.126;2023-02-01T00:05:26;5.45;;;3.45;;
34491;SDS011;20737;49.908;8.126;2023-02-01T00:07:52;8.63;;;3.78;;
34491;SDS011;20737;49.908;8.126;2023-02-01T00:10:19;5.88;;;3.15;;
34491;SDS011;20737;49.908;8.126;2023-02-01T00:12:47;4.45;;;3.10;;
34491;SDS011;20737;49.908;8.126;2023-02-01T00:15:14;4.25;;;3.10;;
34491;SDS011;20737;49.908;8.126;2023-02-01T00:17:41;6.68;;;3.33;;
34491;SDS011;20737;49.908;8.126;2023-02-01T00:20:08;4.57;;;3.05;;
34491;SDS011;20737;49.908;8.126;2023-02-01T00:22:36;6.82;;;3.70;;
34491;SDS011;20737;49.908;8.126;2023-02-01T00:25:03;5.97;;;3.17;;
34491;SDS011;20737;49.908;8.126;2023-02-01T00:27:31;5.97;;;3.60;;
34491;SDS011;20737;49.908;8.126;2023-02-01T00:29:59;5.57;;;3.25;;
34491;SDS011;20737;49.908;8.126;2023-02-01T00:32:26;4.60;;;3.03;;
34491;SDS011;20737;49.908;8.126;2023-02-01T00:34:52;5.25;;;3.50;;
34491;SDS011;20737;49.908;8.126;2023-02-01T00:37:19;5.55;;;3.58;;
34491;SDS011;20737;49.908;8.126;2023-02-01T00:39:46;4.63;;;3.67;;
34491;SDS011;20737;49.908;8.126;2023-02-01T00:42:13;4.65;;;2.97;;
34491;SDS011;20737;49.908;8.126;2023-02-01T00:44:40;7.25;;;4.03;;
34491;SDS011;20737;49.908;8.126;2023-02-01T00:47:10;6.53;;;3.70;;
34491;SDS011;20737;49.908;8.126;2023-02-01T00:49:37;4.30;;;3.38;;
34491;SDS011;20737;49.908;8.126;2023-02-01T00:52:04;5.18;;;3.22;;
34491;SDS011;20737;49.908;8.126;2023-02-01T00:54:31;6.55;;;3.90;;
34491;SDS011;20737;49.908;8.126;2023-02-01T00:57:01;5.65;;;4.20;;
34491;SDS011;20737;49.908;8.126;2023-02-01T00:59:33;8.75;;;4.03;;
34491;SDS011;20737;49.908;8.126;2023-02-01T01:02:00;5.40;;;4.00;;
34491;SDS011;20737;49.908;8.126;2023-02-01T01:04:31;10.32;;;4.22;;
34491;SDS011;20737;49.908;8.126;2023-02-01T01:06:58;6.70;;;4.55;;
34491;SDS011;20737;49.908;8.126;2023-02-01T01:09:25;8.07;;;2.97;;
34491;SDS011;20737;49.908;8.126;2023-02-01T01:11:52;5.50;;;3.20;;
34491;SDS011;20737;49.908;8.126;2023-02-01T01:14:19;5.65;;;3.80;;
34491;SDS011;20737;49.908;8.126;2023-02-01T01:16:45;7.20;;;3.92;;
34491;SDS011;20737;49.908;8.126;2023-02-01T01:19:12;8.20;;;4.63;;
34491;SDS011;20737;49.908;8.126;2023-02-01T01:21:42;6.22;;;4.70;;
34491;SDS011;20737;49.908;8.126;2023-02-01T01:24:15;6.85;;;3.65;;
34491;SDS011;20737;49.908;8.126;2023-02-01T01:26:41;11.13;;;5.18;;
34491;SDS011;20737;49.908;8.126;2023-02-01T01:29:11;7.82;;;4.50;;
34491;SDS011;20737;49.908;8.126;2023-02-01T01:31:37;8.70;;;5.00;;
34491;SDS011;20737;49.908;8.126;2023-02-01T01:34:04;8.05;;;4.60;;
34491;SDS011;20737;49.908;8.126;2023-02-01T01:36:31;10.27;;;5.32;;
34491;SDS011;20737;49.908;8.126;2023-02-01T01:38:59;7.43;;;4.65;;
34491;SDS011;20737;49.908;8.126;2023-02-01T01:41:28;8.02;;;4.78;;
34491;SDS011;20737;49.908;8.126;2023-02-01T01:43:57;7.32;;;5.18;;
34491;SDS011;20737;49.908;8.126;2023-02-01T01:46:25;14.48;;;5.32;;
34491;SDS011;20737;49.908;8.126;2023-02-01T01:48:56;9.02;;;4.40;;
34491;SDS011;20737;49.908;8.126;2023-02-01T01:51:27;12.13;;;5.65;;
34491;SDS011;20737;49.908;8.126;2023-02-01T01:54:00;10.57;;;5.07;;
34491;SDS011;20737;49.908;8.126;2023-02-01T01:56:30;10.70;;;4.72;;
34491;SDS011;20737;49.908;8.126;2023-02-01T01:59:01;13.98;;;4.82;;
34491;SDS011;20737;49.908;8.126;2023-02-01T02:01:28;10.55;;;4.93;;
34491;SDS011;20737;49.908;8.126;2023-02-01T02:03:55;8.65;;;4.53;;
34491;SDS011;20737;49.908;8.126;2023-02-01T02:06:32;9.18;;;5.50;;
34491;SDS011;20737;49.908;8.126;2023-02-01T02:09:11;9.05;;;5.05;;
34491;SDS011;20737;49.908;8.126;2023-02-01T02:11:38;10.10;;;4.78;;
34491;SDS011;20737;49.908;8.126;2023-02-01T02:14:05;11.68;;;5.18;;
34491;SDS011;20737;49.908;8.126;2023-02-01T02:16:39;12.65;;;5.30;;
34491;SDS011;20737;49.908;8.126;2023-02-01T02:19:43;9.02;;;5.32;;
34491;SDS011;20737;49.908;8.126;2023-02-01T02:22:36;13.80;;;5.55;;
34491;SDS011;20737;49.908;8.126;2023-02-01T02:31:49;11.38;;;4.93;;
34491;SDS011;20737;49.908;8.126;2023-02-01T02:34:27;11.70;;;5.00;;
34491;SDS011;20737;49.908;8.126;2023-02-01T02:37:03;10.05;;;5.03;;
34491;SDS011;20737;49.908;8.126;2023-02-01T02:39:39;5.57;;;4.07;;
34491;SDS011;20737;49.908;8.126;2023-02-01T02:42:20;8.00;;;4.35;;
34491;SDS011;20737;49.908;8.126;2023-02-01T02:45:16;10.98;;;4.53;;
34491;SDS011;20737;49.908;8.126;2023-02-01T02:48:06;8.18;;;4.40;;
34491;SDS011;20737;49.908;8.126;2023-02-01T02:50:41;9.95;;;5.15;;
34491;SDS011;20737;49.908;8.126;2023-02-01T02:53:32;6.72;;;3.97;;
34491;SDS011;20737;49.908;8.126;2023-02-01T02:56:21;8.77;;;4.40;;
34491;SDS011;20737;49.908;8.126;2023-02-01T02:59:07;7.32;;;4.60;;
34491;SDS011;20737;49.908;8.126;2023-02-01T03:01:53;6.35;;;4.18;;
34491;SDS011;20737;49.908;8.126;2023-02-01T03:04:38;10.15;;;4.80;;
34491;SDS011;20737;49.908;8.126;2023-02-01T03:07:13;10.95;;;6.72;;
34491;SDS011;20737;49.908;8.126;2023-02-01T03:09:42;7.38;;;4.30;;
34491;SDS011;20737;49.908;8.126;2023-02-01T03:12:13;7.15;;;4.55;;
34491;SDS011;20737;49.908;8.126;2023-02-01T03:15:00;10.48;;;4.28;;
34491;SDS011;20737;49.908;8.126;2023-02-01T03:17:34;6.97;;;4.53;;
34491;SDS011;20737;49.908;8.126;2023-02-01T03:20:05;9.15;;;4.13;;
34491;SDS011;20737;49.908;8.126;2023-02-01T03:22:37;9.98;;;4.60;;
34491;SDS011;20737;49.908;8.126;2023-02-01T03:25:08;11.32;;;4.97;;
34491;SDS011;20737;49.908;8.126;2023-02-01T03:27:43;8.00;;;4.07;;
34491;SDS011;20737;49.908;8.126;2023-02-01T03:30:19;9.95;;;4.63;;
34491;SDS011;20737;49.908;8.126;2023-02-01T03:32:50;7.55;;;4.63;;
34491;SDS011;20737;49.908;8.126;2023-02-01T03:35:25;7.55;;;4.78;;
34491;SDS011;20737;49.908;8.126;2023-02-01T03:38:03;10.23;;;4.40;;
34491;SDS011;20737;49.908;8.126;2023-02-01T03:40:40;9.75;;;4.93;;
34491;SDS011;20737;49.908;8.126;2023-02-01T03:43:17;8.02;;;4.40;;
34491;SDS011;20737;49.908;8.126;2023-02-01T03:45:48;9.07;;;3.92;;
34491;SDS011;20737;49.908;8.126;2023-02-01T03:48:23;8.85;;;4.20;;
34491;SDS011;20737;49.908;8.126;2023-02-01T03:50:53;8.70;;;3.58;;
34491;SDS011;20737;49.908;8.126;2023-02-01T03:53:27;8.02;;;4.32;;
34491;SDS011;20737;49.908;8.126;2023-02-01T03:56:03;7.47;;;3.63;;
34491;SDS011;20737;49.908;8.126;2023-02-01T03:58:31;6.25;;;3.78;;
34491;SDS011;20737;49.908;8.126;2023-02-01T04:00:58;7.38;;;3.90;;
34491;SDS011;20737;49.908;8.126;2023-02-01T04:03:26;8.30;;;4.05;;
34491;SDS011;20737;49.908;8.126;2023-02-01T04:05:53;5.93;;;4.15;;
34491;SDS011;20737;49.908;8.126;2023-02-01T04:08:21;5.18;;;3.50;;
34491;SDS011;20737;49.908;8.126;2023-02-01T04:10:49;7.72;;;3.63;;
34491;SDS011;20737;49.908;8.126;2023-02-01T04:13:16;7.00;;;3.65;;
34491;SDS011;20737;49.908;8.126;2023-02-01T04:15:43;4.53;;;2.90;;
34491;SDS011;20737;49.908;8.126;2023-02-01T04:18:10;5.85;;;2.88;;
34491;SDS011;20737;49.908;8.126;2023-02-01T04:20:37;5.50;;;2.95;;
34491;SDS011;20737;49.908;8.126;2023-02-01T04:23:04;4.50;;;3.10;;
34491;SDS011;20737;49.908;8.126;2023-02-01T04:25:30;7.47;;;2.70;;
34491;SDS011;20737;49.908;8.126;2023-02-01T04:28:01;4.38;;;2.78;;
34491;SDS011;20737;49.908;8.126;2023-02-01T04:30:28;6.07;;;2.85;;
34491;SDS011;20737;49.908;8.126;2023-02-01T04:32:54;6.80;;;2.70;;
34491;SDS011;20737;49.908;8.126;2023-02-01T04:35:21;3.42;;;2.22;;
34491;SDS011;20737;49.908;8.126;2023-02-01T04:37:48;5.65;;;2.38;;
34491;SDS011;20737;49.908;8.126;2023-02-01T04:40:16;3.40;;;2.28;;
34491;SDS011;20737;49.908;8.126;2023-02-01T04:42:43;3.92;;;2.30;;
34491;SDS011;20737;49.908;8.126;2023-02-01T04:45:11;6.70;;;3.10;;
34491;SDS011;20737;49.908;8.126;2023-02-01T04:47:38;6.03;;;2.65;;
34491;SDS011;20737;49.908;8.126;2023-02-01T04:50:06;6.30;;;2.20;;
34491;SDS011;20737;49.908;8.126;2023-02-01T04:52:38;4.82;;;2.63;;
34491;SDS011;20737;49.908;8.126;2023-02-01T04:55:05;5.50;;;2.78;;
34491;SDS011;20737;49.908;8.126;2023-02-01T04:57:34;5.63;;;2.45;;
34491;SDS011;20737;49.908;8.126;2023-02-01T05:00:06;5.40;;;2.22;;
34491;SDS011;20737;49.908;8.126;2023-02-01T05:02:35;4.40;;;2.05;;
34491;SDS011;20737;49.908;8.126;2023-02-01T05:05:02;11.82;;;3.03;;
34491;SDS011;20737;49.908;8.126;2023-02-01T05:07:31;5.50;;;2.20;;
34491;SDS011;20737;49.908;8.126;2023-02-01T05:09:58;6.47;;;1.65;;
34491;SDS011;20737;49.908;8.126;2023-02-01T05:12:25;5.88;;;2.03;;
34491;SDS011;20737;49.908;8.126;2023-02-01T05:15:09;5.00;;;2.05;;
34491;SDS011;20737;49.908;8.126;2023-02-01T05:17:37;4.15;;;1.48;;
34491;SDS011;20737;49.908;8.126;2023-02-01T05:20:08;2.55;;;1.50;;
34491;SDS011;20737;49.908;8.126;2023-02-01T05:22:35;2.03;;;1.30;;
34491;SDS011;20737;49.908;8.126;2023-02-01T05:25:02;2.25;;;1.17;;
34491;SDS011;20737;49.908;8.126;2023-02-01T05:27:29;0.93;;;0.75;;
34491;SDS011;20737;49.908;8.126;2023-02-01T05:29:56;2.15;;;0.90;;
34491;SDS011;20737;49.908;8.126;2023-02-01T05:32:26;3.75;;;0.85;;
34491;SDS011;20737;49.908;8.126;2023-02-01T05:34:55;3.42;;;1.13;;
34491;SDS011;20737;49.908;8.126;2023-02-01T05:37:25;2.22;;;1.08;;
34491;SDS011;20737;49.908;8.126;2023-02-01T05:39:52;2.90;;;1.20;;
34491;SDS011;20737;49.908;8.126;2023-02-01T05:42:19;1.25;;;1.10;;
34491;SDS011;20737;49.908;8.126;2023-02-01T05:44:46;1.17;;;0.80;;
34491;SDS011;20737;49.908;8.126;2023-02-01T05:47:12;1.23;;;1.00;;
34491;SDS011;20737;49.908;8.126;2023-02-01T05:49:41;4.93;;;1.33;;
34491;SDS011;20737;49.908;8.126;2023-02-01T05:52:09;1.77;;;1.23;;
34491;SDS011;20737;49.908;8.126;2023-02-01T05:54:36;3.60;;;1.40;;
34491;SDS011;20737;49.908;8.126;2023-02-01T05:57:03;3.15;;;1.15;;
34491;SDS011;20737;49.908;8.126;2023-02-01T05:59:29;3.28;;;1.45;;
34491;SDS011;20737;49.908;8.126;2023-02-01T06:02:02;4.53;;;1.50;;
34491;SDS011;20737;49.908;8.126;2023-02-01T06:04:29;4.15;;;2.42;;
34491;SDS011;20737;49.908;8.126;2023-02-01T06:06:55;7.00;;;2.35;;
34491;SDS011;20737;49.908;8.126;2023-02-01T06:09:23;6.15;;;2.33;;
34491;SDS011;20737;49.908;8.126;2023-02-01T06:11:53;5.57;;;1.77;;
34491;SDS011;20737;49.908;8.126;2023-02-01T06:14:21;3.70;;;2.10;;
34491;SDS011;20737;49.908;8.126;2023-02-01T06:16:49;6.00;;;2.30;;
34491;SDS011;20737;49.908;8.126;2023-02-01T06:19:16;5.28;;;1.90;;
34491;SDS011;20737;49.908;8.126;2023-02-01T06:21:42;6.10;;;1.95;;
34491;SDS011;20737;49.908;8.126;2023-02-01T06:24:13;8.40;;;1.77;;
34491;SDS011;20737;49.908;8.126;2023-02-01T06:26:41;2.93;;;1.83;;
34491;SDS011;20737;49.908;8.126;2023-02-01T06:29:09;5.22;;;1.48;;
34491;SDS011;20737;49.908;8.126;2023-02-01T06:31:37;3.33;;;1.50;;
34491;SDS011;20737;49.908;8.126;2023-02-01T06:34:04;5.93;;;1.90;;
34491;SDS011;20737;49.908;8.126;2023-02-01T06:36:30;8.88;;;2.08;;
34491;SDS011;20737;49.908;8.126;2023-02-01T06:38:57;3.13;;;1.97;;
34491;SDS011;20737;49.908;8.126;2023-02-01T06:41:24;7.93;;;1.80;;
34491;SDS011;20737;49.908;8.126;2023-02-01T06:43:53;5.88;;;1.95;;
34491;SDS011;20737;49.908;8.126;2023-02-01T06:46:20;8.77;;;2.23;;
34491;SDS011;20737;49.908;8.126;2023-02-01T06:48:46;5.00;;;2.20;;
34491;SDS011;20737;49.908;8.126;2023-02-01T06:51:20;5.30;;;2.83;;
34491;SDS011;20737;49.908;8.126;2023-02-01T06:53:48;6.50;;;1.83;;
34491;SDS011;20737;49.908;8.126;2023-02-01T06:56:15;11.75;;;2.70;;
34491;SDS011;20737;49.908;8.126;2023-02-01T06:58:42;5.90;;;2.28;;
34491;SDS011;20737;49.908;8.126;2023-02-01T07:01:11;6.40;;;2.07;;
34491;SDS011;20737;49.908;8.126;2023-02-01T07:03:38;6.13;;;2.60;;
34491;SDS011;20737;49.908;8.126;2023-02-01T07:06:05;6.80;;;2.80;;
34491;SDS011;20737;49.908;8.126;2023-02-01T07:08:34;9.43;;;2.95;;
34491;SDS011;20737;49.908;8.126;2023-02-01T07:11:02;6.97;;;2.70;;
34491;SDS011;20737;49.908;8.126;2023-02-01T07:13:30;8.53;;;2.90;;
34491;SDS011;20737;49.908;8.126;2023-02-01T07:15:59;10.18;;;2.88;;
34491;SDS011;20737;49.908;8.126;2023-02-01T07:18:30;10.60;;;3.53;;
34491;SDS011;20737;49.908;8.126;2023-02-01T07:20:57;5.17;;;2.60;;
34491;SDS011;20737;49.908;8.126;2023-02-01T07:23:25;7.13;;;1.77;;
34491;SDS011;20737;49.908;8.126;2023-02-01T07:25:53;9.03;;;2.43;;
34491;SDS011;20737;49.908;8.126;2023-02-01T07:28:20;6.57;;;2.28;;
34491;SDS011;20737;49.908;8.126;2023-02-01T07:30:47;4.57;;;2.33;;
34491;SDS011;20737;49.908;8.126;2023-02-01T07:33:15;9.30;;;2.10;;
34491;SDS011;20737;49.908;8.126;2023-02-01T07:35:45;8.85;;;2.70;;
34491;SDS011;20737;49.908;8.126;2023-02-01T07:38:13;11.57;;;2.57;;
34491;SDS011;20737;49.908;8.126;2023-02-01T07:40:40;6.65;;;2.97;;
34491;SDS011;20737;49.908;8.126;2023-02-01T07:43:07;7.55;;;2.50;;
34491;SDS011;20737;49.908;8.126;2023-02-01T07:45:34;6.85;;;2.10;;
34491;SDS011;20737;49.908;8.126;2023-02-01T07:48:02;7.57;;;3.08;;
34491;SDS011;20737;49.908;8.126;2023-02-01T07:50:29;8.52;;;2.38;;
34491;SDS011;20737;49.908;8.126;2023-02-01T07:52:59;6.38;;;2.47;;
34491;SDS011;20737;49.908;8.126;2023-02-01T07:55:26;6.20;;;2.45;;
34491;SDS011;20737;49.908;8.126;2023-02-01T07:57:56;9.82;;;2.25;;
34491;SDS011;20737;49.908;8.126;2023-02-01T08:00:23;7.07;;;2.25;;
34491;SDS011;20737;49.908;8.126;2023-02-01T08:03:07;7.28;;;2.80;;
34491;SDS011;20737;49.908;8.126;2023-02-01T08:05:34;10.37;;;3.10;;
34491;SDS011;20737;49.908;8.126;2023-02-01T08:08:03;8.60;;;2.20;;
34491;SDS011;20737;49.908;8.126;2023-02-01T08:10:30;6.13;;;1.88;;
34491;SDS011;20737;49.908;8.126;2023-02-01T08:12:57;8.68;;;2.92;;
34491;SDS011;20737;49.908;8.126;2023-02-01T08:15:25;8.93;;;2.35;;
34491;SDS011;20737;49.908;8.126;2023-02-01T08:17:52;8.30;;;2.80;;
34491;SDS011;20737;49.908;8.126;2023-02-01T08:20:20;7.05;;;1.88;;
34491;SDS011;20737;49.908;8.126;2023-02-01T08:22:47;9.68;;;2.45;;
34491;SDS011;20737;49.908;8.126;2023-02-01T08:25:16;6.18;;;2.40;;
34491;SDS011;20737;49.908;8.126;2023-02-01T08:27:43;6.15;;;2.55;;
34491;SDS011;20737;49.908;8.126;2023-02-01T08:30:11;5.80;;;2.60;;
34491;SDS011;20737;49.908;8.126;2023-02-01T08:32:38;11.27;;;2.50;;
34491;SDS011;20737;49.908;8.126;2023-02-01T08:35:05;6.53;;;1.95;;
34491;SDS011;20737;49.908;8.126;2023-02-01T08:37:33;6.07;;;2.15;;
34491;SDS011;20737;49.908;8.126;2023-02-01T08:40:00;6.13;;;1.90;;
34491;SDS011;20737;49.908;8.126;2023-02-01T08:42:28;8.45;;;2.22;;
34491;SDS011;20737;49.908;8.126;2023-02-01T08:45:12;9.93;;;2.25;;
34491;SDS011;20737;49.908;8.126;2023-02-01T08:47:39;5.68;;;2.00;;
34491;SDS011;20737;49.908;8.126;2023-02-01T08:50:06;5.60;;;1.92;;
34491;SDS011;20737;49.908;8.126;2023-02-01T08:52:34;7.18;;;2.33;;
34491;SDS011;20737;49.908;8.126;2023-02-01T08:55:01;7.80;;;1.88;;
34491;SDS011;20737;49.908;8.126;2023-02-01T08:57:29;8.93;;;2.33;;
34491;SDS011;20737;49.908;8.126;2023-02-01T08:59:58;9.23;;;2.20;;
34491;SDS011;20737;49.908;8.126;2023-02-01T09:02:25;6.50;;;1.70;;
34491;SDS011;20737;49.908;8.126;2023-02-01T09:04:52;6.68;;;2.42;;
34491;SDS011;20737;49.908;8.126;2023-02-01T09:07:19;4.43;;;1.45;;
34491;SDS011;20737;49.908;8.126;2023-02-01T09:09:45;10.25;;;2.03;;
34491;SDS011;20737;49.908;8.126;2023-02-01T09:12:12;7.43;;;1.95;;
34491;SDS011;20737;49.908;8.126;2023-02-01T09:14:41;5.95;;;2.10;;
34491;SDS011;20737;49.908;8.126;2023-02-01T09:17:07;7.25;;;2.05;;
34491;SDS011;20737;49.908;8.126;2023-02-01T09:19:34;6.70;;;2.22;;
34491;SDS011;20737;49.908;8.126;2023-02-01T09:22:01;5.63;;;1.95;;
34491;SDS011;20737;49.908;8.126;2023-02-01T09:24:28;7.70;;;1.70;;
34491;SDS011;20737;49.908;8.126;2023-02-01T09:26:55;8.90;;;2.03;;
34491;SDS011;20737;49.908;8.126;2023-02-01T09:29:22;6.88;;;2.30;;
34491;SDS011;20737;49.908;8.126;2023-02-01T09:31:50;11.35;;;2.08;;
34491;SDS011;20737;49.908;8.126;2023-02-01T09:34:17;6.57;;;1.33;;
34491;SDS011;20737;49.908;8.126;2023-02-01T09:36:43;7.30;;;1.92;;
34491;SDS011;20737;49.908;8.126;2023-02-01T09:39:10;2.90;;;1.10;;
34491;SDS011;20737;49.908;8.126;2023-02-01T09:41:40;4.50;;;1.65;;
34491;SDS011;20737;49.908;8.126;2023-02-01T09:44:21;10.82;;;2.55;;
34491;SDS011;20737;49.908;8.126;2023-02-01T09:46:59;5.65;;;1.42;;
34491;SDS011;20737;49.908;8.126;2023-02-01T09:49:26;6.25;;;1.65;;
34491;SDS011;20737;49.908;8.126;2023-02-01T09:51:56;11.57;;;2.00;;
34491;SDS011;20737;49.908;8.126;2023-02-01T09:54:25;1.85;;;1.23;;
34491;SDS011;20737;49.908;8.126;2023-02-01T09:56:54;4.38;;;1.50;;
34491;SDS011;20737;49.908;8.126;2023-02-01T09:59:29;5.23;;;1.63;;
34491;SDS011;20737;49.908;8.126;2023-02-01T10:02:02;9.98;;;2.47;;
34491;SDS011;20737;49.908;8.126;2023-02-01T10:04:31;4.78;;;1.38;;
34491;SDS011;20737;49.908;8.126;2023-02-01T10:07:07;7.68;;;1.90;;
34491;SDS011;20737;49.908;8.126;2023-02-01T10:09:44;7.00;;;1.50;;
34491;SDS011;20737;49.908;8.126;2023-02-01T10:12:49;6.40;;;1.48;;
34491;SDS011;20737;49.908;8.126;2023-02-01T10:15:35;9.55;;;2.53;;
34491;SDS011;20737;49.908;8.126;2023-02-01T10:21:09;9.75;;;1.80;;
34491;SDS011;20737;49.908;8.126;2023-02-01T10:23:58;8.00;;;2.28;;
34491;SDS011;20737;49.908;8.126;2023-02-01T10:26:45;11.07;;;2.25;;
34491;SDS011;20737;49.908;8.126;2023-02-01T10:29:16;8.00;;;1.98;;
34491;SDS011;20737;49.908;8.126;2023-02-01T10:31:45;6.13;;;2.50;;
34491;SDS011;20737;49.908;8.126;2023-02-01T10:34:17;8.60;;;2.50;;
34491;SDS011;20737;49.908;8.126;2023-02-01T10:36:50;6.70;;;1.98;;
34491;SDS011;20737;49.908;8.126;2023-02-01T10:39:23;5.28;;;1.35;;
34491;SDS011;20737;49.908;8.126;2023-02-01T10:41:50;5.90;;;1.65;;
34491;SDS011;20737;49.908;8.126;2023-02-01T10:44:18;8.15;;;1.67;;
34491;SDS011;20737;49.908;8.126;2023-02-01T10:46:47;8.60;;;1.55;;
34491;SDS011;20737;49.908;8.126;2023-02-01T10:49:17;10.55;;;2.00;;
34491;SDS011;20737;49.908;8.126;2023-02-01T10:51:47;9.07;;;1.73;;
34491;SDS011;20737;49.908;8.126;2023-02-01T10:54:19;5.88;;;1.83;;
34491;SDS011;20737;49.908;8.126;2023-02-01T10:56:47;9.70;;;1.80;;
34491;SDS011;20737;49.908;8.126;2023-02-01T10:59:16;9.23;;;2.35;;
34491;SDS011;20737;49.908;8.126;2023-02-01T11:01:46;6.05;;;1.60;;
34491;SDS011;20737;49.908;8.126;2023-02-01T11:04:14;4.82;;;1.08;;
34491;SDS011;20737;49.908;8.126;2023-02-01T11:06:45;7.60;;;1.77;;
34491;SDS011;20737;49.908;8.126;2023-02-01T11:09:16;7.00;;;2.55;;
34491;SDS011;20737;49.908;8.126;2023-02-01T11:11:53;6.50;;;1.13;;
34491;SDS011;20737;49.908;8.126;2023-02-01T11:14:26;5.32;;;1.58;;
34491;SDS011;20737;49.908;8.126;2023-02-01T11:16:58;5.88;;;1.50;;
34491;SDS011;20737;49.908;8.126;2023-02-01T11:19:28;12.05;;;2.25;;
34491;SDS011;20737;49.908;8.126;2023-02-01T11:21:55;9.48;;;1.92;;
34491;SDS011;20737;49.908;8.126;2023-02-01T11:24:26;4.50;;;1.30;;
34491;SDS011;20737;49.908;8.126;2023-02-01T11:26:55;5.95;;;1.98;;
34491;SDS011;20737;49.908;8.126;2023-02-01T11:29:23;12.32;;;2.55;;
34491;SDS011;20737;49.908;8.126;2023-02-01T11:31:54;9.70;;;2.00;;
34491;SDS011;20737;49.908;8.126;2023-02-01T11:34:24;8.63;;;1.70;;
34491;SDS011;20737;49.908;8.126;2023-02-01T11:36:56;11.80;;;1.65;;
34491;SDS011;20737;49.908;8.126;2023-02-01T11:39:28;5.55;;;1.63;;
34491;SDS011;20737;49.908;8.126;2023-02-01T11:41:58;8.40;;;1.70;;
34491;SDS011;20737;49.908;8.126;2023-02-01T11:44:31;7.82;;;1.80;;
34491;SDS011;20737;49.908;8.126;2023-02-01T11:47:19;9.38;;;1.85;;
34491;SDS011;20737;49.908;8.126;2023-02-01T11:49:51;8.07;;;2.13;;
34491;SDS011;20737;49.908;8.126;2023-02-01T11:52:24;5.47;;;1.00;;
34491;SDS011;20737;49.908;8.126;2023-02-01T11:55:12;6.70;;;1.13;;
34491;SDS011;20737;49.908;8.126;2023-02-01T11:57:49;5.97;;;1.50;;
34491;SDS011;20737;49.908;8.126;2023-02-01T12:00:29;8.43;;;2.00;;
34491;SDS011;20737;49.908;8.126;2023-02-01T12:03:25;8.63;;;1.42;;
34491;SDS011;20737;49.908;8.126;2023-02-01T12:06:06;9.13;;;1.60;;
34491;SDS011;20737;49.908;8.126;2023-02-01T12:08:50;10.25;;;1.35;;
34491;SDS011;20737;49.908;8.126;2023-02-01T12:11:41;8.40;;;1.65;;
34491;SDS011;20737;49.908;8.126;2023-02-01T12:14:21;4.55;;;1.98;;
34491;SDS011;20737;49.908;8.126;2023-02-01T12:17:02;7.28;;;1.38;;
34491;SDS011;20737;49.908;8.126;2023-02-01T12:19:57;5.90;;;1.88;;
34491;SDS011;20737;49.908;8.126;2023-02-01T12:22:54;10.85;;;1.75;;
34491;SDS011;20737;49.908;8.126;2023-02-01T12:25:33;8.32;;;1.88;;
34491;SDS011;20737;49.908;8.126;2023-02-01T12:31:17;3.83;;;1.25;;
34491;SDS011;20737;49.908;8.126;2023-02-01T12:34:05;7.43;;;1.40;;
34491;SDS011;20737;49.908;8.126;2023-02-01T12:36:45;7.30;;;1.35;;
34491;SDS011;20737;49.908;8.126;2023-02-01T12:39:20;8.18;;;2.05;;
34491;SDS011;20737;49.908;8.126;2023-02-01T12:41:53;6.03;;;1.30;;
34491;SDS011;20737;49.908;8.126;2023-02-01T12:44:27;8.57;;;2.60;;
34491;SDS011;20737;49.908;8.126;2023-02-01T12:47:04;4.35;;;1.75;;
34491;SDS011;20737;49.908;8.126;2023-02-01T12:49:41;5.43;;;1.52;;
34491;SDS011;20737;49.908;8.126;2023-02-01T12:52:14;5.53;;;2.47;;
34491;SDS011;20737;49.908;8.126;2023-02-01T12:54:46;8.60;;;1.40;;
34491;SDS011;20737;49.908;8.126;2023-02-01T12:57:23;13.48;;;1.92;;
34491;SDS011;20737;49.908;8.126;2023-02-01T12:59:53;4.88;;;1.50;;
34491;SDS011;20737;49.908;8.126;2023-02-01T13:02:28;8.48;;;1.60;;
34491;SDS011;20737;49.908;8.126;2023-02-01T13:05:11;10.77;;;2.05;;
34491;SDS011;20737;49.908;8.126;2023-02-01T13:07:43;9.45;;;1.58;;
34491;SDS011;20737;49.908;8.126;2023-02-01T13:10:16;9.52;;;1.80;;
34491;SDS011;20737;49.908;8.126;2023-02-01T13:12:50;6.30;;;1.35;;
34491;SDS011;20737;49.908;8.126;2023-02-01T13:17:49;8.30;;;1.30;;
34491;SDS011;20737;49.908;8.126;2023-02-01T13:20:19;11.30;;;1.42;;
34491;SDS011;20737;49.908;8.126;2023-02-01T13:22:51;6.22;;;1.95;;
34491;SDS011;20737;49.908;8.126;2023-02-01T13:25:25;6.22;;;1.20;;
34491;SDS011;20737;49.908;8.126;2023-02-01T13:27:58;6.55;;;1.33;;
34491;SDS011;20737;49.908;8.126;2023-02-01T13:30:30;9.57;;;2.10;;
34491;SDS011;20737;49.908;8.126;2023-02-01T13:33:13;7.90;;;1.55;;
34491;SDS011;20737;49.908;8.126;2023-02-01T13:35:54;12.15;;;1.63;;
34491;SDS011;20737;49.908;8.126;2023-02-01T13:41:41;7.22;;;2.13;;
34491;SDS011;20737;49.908;8.126;2023-02-01T13:44:21;5.65;;;1.85;;
34491;SDS011;20737;49.908;8.126;2023-02-01T13:46:54;3.25;;;1.67;;
34491;SDS011;20737;49.908;8.126;2023-02-01T13:49:26;4.07;;;1.60;;
34491;SDS011;20737;49.908;8.126;2023-02-01T13:51:55;7.18;;;1.48;;
34491;SDS011;20737;49.908;8.126;2023-02-01T13:54:24;20.02;;;5.50;;
34491;SDS011;20737;49.908;8.126;2023-02-01T13:56:54;8.10;;;2.22;;
34491;SDS011;20737;49.908;8.126;2023-02-01T14:11:40;6.32;;;1.75;;
34491;SDS011;20737;49.908;8.126;2023-02-01T14:26:08;11.63;;;2.53;;
34491;SDS011;20737;49.908;8.126;2023-02-01T14:28:42;10.57;;;1.33;;
34491;SDS011;20737;49.908;8.126;2023-02-01T14:31:16;5.93;;;1.20;;
34491;SDS011;20737;49.908;8.126;2023-02-01T14:33:58;4.68;;;0.98;;
34491;SDS011;20737;49.908;8.126;2023-02-01T14:36:36;9.45;;;1.90;;
34491;SDS011;20737;49.908;8.126;2023-02-01T14:39:20;5.32;;;1.63;;
34491;SDS011;20737;49.908;8.126;2023-02-01T14:42:15;3.05;;;1.02;;
34491;SDS011;20737;49.908;8.126;2023-02-01T14:44:51;11.63;;;1.60;;
34491;SDS011;20737;49.908;8.126;2023-02-01T14:47:29;4.57;;;1.80;;
34491;SDS011;20737;49.908;8.126;2023-02-01T14:55:51;6.70;;;1.88;;
34491;SDS011;20737;49.908;8.126;2023-02-01T14:58:23;9.45;;;1.92;;
34491;SDS011;20737;49.908;8.126;2023-02-01T15:00:58;3.60;;;1.45;;
34491;SDS011;20737;49.908;8.126;2023-02-01T15:03:40;7.57;;;1.30;;
34491;SDS011;20737;49.908;8.126;2023-02-01T15:06:18;9.38;;;1.38;;
34491;SDS011;20737;49.908;8.126;2023-02-01T15:08:53;7.45;;;1.38;;
34491;SDS011;20737;49.908;8.126;2023-02-01T15:11:23;8.80;;;1.50;;
34491;SDS011;20737;49.908;8.126;2023-02-01T15:13:54;9.35;;;1.80;;
34491;SDS011;20737;49.908;8.126;2023-02-01T15:16:25;10.75;;;1.83;;
34491;SDS011;20737;49.908;8.126;2023-02-01T15:21:42;8.68;;;1.48;;
34491;SDS011;20737;49.908;8.126;2023-02-01T15:24:20;11.63;;;2.28;;
34491;SDS011;20737;49.908;8.126;2023-02-01T15:26:50;5.82;;;1.30;;
34491;SDS011;20737;49.908;8.126;2023-02-01T15:29:18;5.32;;;1.00;;
34491;SDS011;20737;49.908;8.126;2023-02-01T15:31:53;7.57;;;1.45;;
34491;SDS011;20737;49.908;8.126;2023-02-01T15:34:20;3.75;;;1.92;;
34491;SDS011;20737;49.908;8.126;2023-02-01T15:36:47;4.85;;;1.23;;
34491;SDS011;20737;49.908;8.126;2023-02-01T15:39:17;3.72;;;0.90;;
34491;SDS011;20737;49.908;8.126;2023-02-01T15:41:54;4.50;;;1.33;;
34491;SDS011;20737;49.908;8.126;2023-02-01T15:44:28;4.68;;;1.25;;
34491;SDS011;20737;49.908;8.126;2023-02-01T15:46:58;3.00;;;0.90;;
34491;SDS011;20737;49.908;8.126;2023-02-01T15:49:26;2.70;;;0.80;;
34491;SDS011;20737;49.908;8.126;2023-02-01T15:51:56;6.00;;;1.15;;
34491;SDS011;20737;49.908;8.126;2023-02-01T15:54:26;4.20;;;1.00;;
34491;SDS011;20737;49.908;8.126;2023-02-01T15:56:57;4.90;;;1.02;;
34491;SDS011;20737;49.908;8.126;2023-02-01T15:59:29;5.15;;;1.40;;
34491;SDS011;20737;49.908;8.126;2023-02-01T16:01:59;9.90;;;1.80;;